createdAt,value
2022-08-17T00:01:28.962Z,100302.97
2022-08-17T00:03:57.873Z,100309.47
2022-08-17T00:06:29.043Z,100310.72
2022-08-17T00:09:01.073Z,100314.00
2022-08-17T00:11:34.492Z,100308.66
2022-08-17T00:14:08.361Z,100306.09
2022-08-17T00:16:55.283Z,100296.81
2022-08-17T00:19:25.540Z,100305.16
2022-08-17T00:22:29.916Z,100302.94
2022-08-17T00:24:40.337Z,100306.00
2022-08-17T00:27:06.666Z,100299.25
2022-08-17T00:29:32.988Z,100304.16
2022-08-17T00:32:01.578Z,100306.25
2022-08-17T00:34:47.865Z,100309.72
2022-08-17T00:37:14.202Z,100305.09
2022-08-17T00:39:43.917Z,100314.16
2022-08-17T00:42:18.787Z,100314.06
2022-08-17T00:44:45.384Z,100315.69
2022-08-17T00:47:11.839Z,100302.28
2022-08-17T00:49:38.197Z,100306.19
2022-08-17T00:52:12.334Z,100306.94
2022-08-17T00:54:42.544Z,100308.31
2022-08-17T00:57:19.946Z,100303.03
2022-08-17T01:00:02.032Z,100309.75
2022-08-17T01:02:34.324Z,100308.47
2022-08-17T01:05:08.843Z,100303.66
2022-08-17T01:07:35.369Z,100304.72
2022-08-17T01:10:08.398Z,100299.13
2022-08-17T01:12:54.834Z,100300.91
2022-08-17T01:15:21.774Z,100299.16
2022-08-17T01:17:48.175Z,100307.78
2022-08-17T01:20:14.898Z,100302.97
2022-08-17T01:22:41.235Z,100307.09
2022-08-17T01:25:08.709Z,100305.63
2022-08-17T01:27:36.877Z,100311.41
2022-08-17T01:30:58.275Z,100315.41
2022-08-17T01:32:55.790Z,100309.53
2022-08-17T01:35:22.156Z,100317.59
2022-08-17T01:37:48.477Z,100319.69
2022-08-17T01:40:22.501Z,100317.41
2022-08-17T01:42:55.205Z,100320.84
2022-08-17T01:45:25.903Z,100315.41
2022-08-17T01:47:53.517Z,100321.28
2022-08-17T01:50:25.497Z,100320.00
2022-08-17T01:52:56.464Z,100312.78
2022-08-17T01:55:29.342Z,100315.47
2022-08-17T01:57:55.745Z,100320.53
2022-08-17T02:00:22.333Z,100321.84
2022-08-17T02:02:48.766Z,100320.31
2022-08-17T02:05:15.289Z,100314.00
2022-08-17T02:07:59.872Z,100319.53
2022-08-17T02:10:32.902Z,100328.34
2022-08-17T02:13:03.384Z,100323.66
2022-08-17T02:15:29.859Z,100315.44
2022-08-17T02:17:56.160Z,100312.69
2022-08-17T02:20:42.140Z,100312.22
2022-08-17T02:23:10.815Z,100304.00
2022-08-17T02:25:39.735Z,100303.16
2022-08-17T02:28:06.282Z,100306.47
2022-08-17T02:30:59.722Z,100303.75
2022-08-17T02:33:18.987Z,100310.31
2022-08-17T02:35:46.783Z,100306.38
2022-08-17T02:38:13.287Z,100308.63
2022-08-17T02:40:39.857Z,100310.91
2022-08-17T02:43:08.164Z,100301.91
2022-08-17T02:45:35.873Z,100307.50
2022-08-17T02:48:03.560Z,100310.59
2022-08-17T02:50:29.986Z,100306.78
2022-08-17T02:53:01.899Z,100304.41
2022-08-17T02:55:34.615Z,100296.13
2022-08-17T02:58:01.337Z,100304.53
2022-08-17T03:00:31.422Z,100308.34
2022-08-17T03:02:57.793Z,100312.91
2022-08-17T03:05:27.381Z,100311.47
2022-08-17T03:07:54.157Z,100304.16
2022-08-17T03:10:21.043Z,100308.84
2022-08-17T03:12:47.989Z,100311.53
2022-08-17T03:15:18.820Z,100312.81
2022-08-17T03:17:45.210Z,100315.56
2022-08-17T03:20:13.535Z,100320.06
2022-08-17T03:22:42.480Z,100319.81
2022-08-17T03:25:19.946Z,100317.69
2022-08-17T03:27:49.014Z,100308.38
2022-08-17T03:30:18.300Z,100324.28
2022-08-17T03:32:49.944Z,100312.13
2022-08-17T03:35:19.620Z,100317.59
2022-08-17T03:37:45.943Z,100315.22
2022-08-17T03:40:13.389Z,100313.00
2022-08-17T03:42:40.674Z,100313.28
2022-08-17T03:45:15.587Z,100313.44
2022-08-17T03:47:42.098Z,100306.28
2022-08-17T03:50:11.385Z,100305.81
2022-08-17T03:52:40.798Z,100307.97
2022-08-17T03:55:07.497Z,100313.81
2022-08-17T03:57:33.798Z,100309.78
2022-08-17T04:00:00.254Z,100314.28
2022-08-17T04:02:29.975Z,100308.72
2022-08-17T04:04:57.217Z,100308.00
2022-08-17T04:07:26.282Z,100312.53
2022-08-17T04:09:53.011Z,100310.44
2022-08-17T04:12:22.412Z,100315.44
2022-08-17T04:14:53.740Z,100307.22
2022-08-17T04:17:24.155Z,100312.09
2022-08-17T04:19:50.727Z,100315.09
2022-08-17T04:22:33.070Z,100312.88
2022-08-17T04:25:15.341Z,100313.41
2022-08-17T04:27:41.756Z,100314.22
2022-08-17T04:30:09.308Z,100319.75
2022-08-17T04:33:03.874Z,100318.00
2022-08-17T04:35:42.684Z,100316.94
2022-08-17T04:38:11.582Z,100323.78
2022-08-17T04:40:38.283Z,100323.94
2022-08-17T04:43:08.048Z,100324.09
2022-08-17T04:45:39.359Z,100326.88
2022-08-17T04:48:05.957Z,100326.69
2022-08-17T04:50:39.409Z,100330.41
2022-08-17T04:53:05.664Z,100329.34
2022-08-17T04:55:31.993Z,100331.38
2022-08-17T04:57:58.332Z,100342.75
2022-08-17T05:00:25.327Z,100341.84
2022-08-17T05:02:54.592Z,100342.84
2022-08-17T05:05:23.237Z,100339.16
2022-08-17T05:07:55.105Z,100345.63
2022-08-17T05:10:23.076Z,100343.28
2022-08-17T05:13:20.010Z,100351.00
2022-08-17T05:15:48.130Z,100350.44
2022-08-17T05:18:16.795Z,100357.34
2022-08-17T05:20:44.400Z,100348.19
2022-08-17T05:23:15.181Z,100357.34
2022-08-17T05:25:51.436Z,100363.84
2022-08-17T05:28:20.835Z,100362.34
2022-08-17T05:30:50.928Z,100370.13
2022-08-17T05:33:21.073Z,100366.91
2022-08-17T05:35:48.812Z,100369.59
2022-08-17T05:38:17.489Z,100367.00
2022-08-17T05:40:44.559Z,100365.38
2022-08-17T05:43:20.597Z,100367.91
2022-08-17T05:46:00.056Z,100364.34
2022-08-17T05:48:36.783Z,100369.25
2022-08-17T05:51:27.572Z,100369.22
2022-08-17T05:54:21.973Z,100373.06
2022-08-17T05:57:15.990Z,100366.34
2022-08-17T06:00:01.558Z,100358.66
2022-08-17T06:02:50.349Z,100369.34
2022-08-17T06:05:35.173Z,100372.28
2022-08-17T06:08:20.715Z,100374.22
2022-08-17T06:11:15.977Z,100370.31
2022-08-17T06:14:08.197Z,100374.38
2022-08-17T06:16:39.204Z,100373.44
2022-08-17T06:19:18.896Z,100369.19
2022-08-17T06:21:50.970Z,100371.19
2022-08-17T06:24:42.096Z,100367.78
2022-08-17T06:27:33.780Z,100370.81
2022-08-17T06:30:09.448Z,100372.84
2022-08-17T06:32:39.069Z,100374.53
2022-08-17T06:35:08.733Z,100374.94
2022-08-17T06:37:53.944Z,100372.38
2022-08-17T06:40:35.246Z,100368.22
2022-08-17T06:43:13.335Z,100361.81
2022-08-17T06:46:08.078Z,100365.00
2022-08-17T06:48:43.456Z,100366.38
2022-08-17T06:51:23.654Z,100367.53
2022-08-17T06:54:02.513Z,100375.13
2022-08-17T06:56:52.685Z,100368.84
2022-08-17T06:59:25.510Z,100364.38
2022-08-17T07:01:52.865Z,100368.03
2022-08-17T07:04:25.062Z,100365.91
2022-08-17T07:06:56.929Z,100363.13
2022-08-17T07:09:36.986Z,100359.63
2022-08-17T07:12:19.468Z,100355.28
2022-08-17T07:14:52.768Z,100369.19
2022-08-17T07:17:20.132Z,100364.59
2022-08-17T07:19:49.538Z,100368.44
2022-08-17T07:22:50.325Z,100361.09
2022-08-17T07:25:21.538Z,100367.34
2022-08-17T07:27:51.024Z,100370.03
2022-08-17T07:30:25.400Z,100367.91
2022-08-17T07:33:14.960Z,100367.53
2022-08-17T07:35:44.320Z,100376.94
2022-08-17T07:38:24.209Z,100375.94
2022-08-17T07:40:55.314Z,100373.91
2022-08-17T07:43:41.876Z,100376.66
2022-08-17T07:46:15.025Z,100377.44
2022-08-17T07:48:42.542Z,100380.50
2022-08-17T07:51:20.254Z,100374.25
2022-08-17T07:53:49.771Z,100372.16
2022-08-17T07:56:34.734Z,100377.53
2022-08-17T07:59:11.873Z,100377.94
2022-08-17T08:01:41.898Z,100385.28
2022-08-17T08:04:37.576Z,100390.66
2022-08-17T08:07:27.199Z,100373.31
2022-08-17T08:10:08.431Z,100377.66
2022-08-17T08:12:41.602Z,100380.84
2022-08-17T08:15:19.090Z,100395.19
2022-08-17T08:17:59.551Z,100381.53
2022-08-17T08:20:52.028Z,100386.47
2022-08-17T08:23:31.869Z,100383.16
2022-08-17T08:26:26.525Z,100392.16
2022-08-17T08:28:59.361Z,100384.97
2022-08-17T08:32:03.265Z,100385.72
2022-08-17T08:35:02.315Z,100390.28
2022-08-17T08:37:44.796Z,100398.38
2022-08-17T08:40:38.835Z,100391.34
2022-08-17T08:43:32.138Z,100395.41
2022-08-17T08:46:13.351Z,100399.88
2022-08-17T08:49:10.231Z,100404.88
2022-08-17T08:51:59.133Z,100392.16
2022-08-17T08:54:32.965Z,100385.09
2022-08-17T08:57:25.707Z,100400.34
2022-08-17T09:00:10.298Z,100397.00
2022-08-17T09:03:01.195Z,100397.94
2022-08-17T09:06:06.344Z,100399.25
2022-08-17T09:08:59.361Z,100392.28
2022-08-17T09:12:02.779Z,100402.78
2022-08-17T09:14:47.101Z,100398.88
2022-08-17T09:17:20.343Z,100403.50
2022-08-17T09:19:46.561Z,100401.34
2022-08-17T09:22:33.193Z,100405.19
2022-08-17T09:25:23.125Z,100403.88
2022-08-17T09:28:06.367Z,100406.16
2022-08-17T09:30:44.198Z,100404.41
2022-08-17T09:33:15.565Z,100393.38
2022-08-17T09:35:47.560Z,100399.59
2022-08-17T09:38:26.284Z,100401.88
2022-08-17T09:41:05.388Z,100398.38
2022-08-17T09:43:41.580Z,100396.56
2022-08-17T09:46:15.539Z,100394.84
2022-08-17T09:48:50.201Z,100394.06
2022-08-17T09:51:26.014Z,100397.91
2022-08-17T09:53:52.380Z,100390.66
2022-08-17T09:56:35.307Z,100391.91
2022-08-17T09:59:38.341Z,100386.78
2022-08-17T10:02:59.968Z,100387.88
2022-08-17T10:05:40.314Z,100386.47
2022-08-17T10:08:26.589Z,100392.53
2022-08-17T10:11:05.026Z,100390.63
2022-08-17T10:13:52.800Z,100381.72
2022-08-17T10:16:31.749Z,100386.06
2022-08-17T10:19:15.812Z,100374.97
2022-08-17T10:21:47.333Z,100375.97
2022-08-17T10:24:33.781Z,100369.81
2022-08-17T10:27:02.994Z,100361.44
2022-08-17T10:29:49.686Z,100363.56
2022-08-17T10:32:29.312Z,100366.41
2022-08-17T10:35:17.548Z,100359.53
2022-08-17T10:38:17.589Z,100358.53
2022-08-17T10:40:55.500Z,100352.63
2022-08-17T10:44:37.117Z,100346.72
2022-08-17T10:47:03.161Z,100350.47
2022-08-17T10:49:35.911Z,100357.84
2022-08-17T10:52:26.845Z,100348.31
2022-08-17T10:54:58.083Z,100361.38
2022-08-17T10:57:31.136Z,100360.34
2022-08-17T11:00:00.828Z,100358.38
2022-08-17T11:02:43.375Z,100356.41
2022-08-17T11:05:28.818Z,100349.81
2022-08-17T11:08:03.414Z,100342.06
2022-08-17T11:10:54.893Z,100344.03
2022-08-17T11:14:06.855Z,100344.41
2022-08-17T11:16:43.589Z,100342.00
2022-08-17T11:19:47.583Z,100344.78
2022-08-17T11:22:38.713Z,100347.69
2022-08-17T11:25:17.907Z,100328.94
2022-08-17T11:27:45.974Z,100335.91
2022-08-17T11:30:49.522Z,100332.94
2022-08-17T11:33:33.874Z,100328.84
2022-08-17T11:36:26.389Z,100333.03
2022-08-17T11:39:20.222Z,100332.09
2022-08-17T11:41:52.989Z,100336.69
2022-08-17T11:44:34.065Z,100330.03
2022-08-17T11:47:31.303Z,100331.41
2022-08-17T11:50:10.621Z,100336.44
2022-08-17T11:52:46.030Z,100337.81
2022-08-17T11:55:37.520Z,100326.56
2022-08-17T11:58:33.979Z,100327.94
2022-08-17T12:01:06.183Z,100327.81
2022-08-17T12:03:32.578Z,100328.44
2022-08-17T12:06:06.834Z,100334.09
2022-08-17T12:08:39.383Z,100331.56
2022-08-17T12:11:16.254Z,100324.84
2022-08-17T12:14:03.215Z,100318.91
2022-08-17T12:16:29.551Z,100325.31
2022-08-17T12:19:01.538Z,100324.78
2022-08-17T12:21:49.002Z,100330.91
2022-08-17T12:24:29.187Z,100323.34
2022-08-17T12:27:00.253Z,100327.59
2022-08-17T12:29:35.448Z,100319.13
2022-08-17T12:32:06.019Z,100307.16
2022-08-17T12:34:40.060Z,100303.06
2022-08-17T12:37:23.999Z,100302.34
2022-08-17T12:40:00.635Z,100301.03
2022-08-17T12:42:30.548Z,100298.19
2022-08-17T12:44:57.595Z,100296.72
2022-08-17T12:47:24.449Z,100290.38
2022-08-17T12:50:07.118Z,100294.06
2022-08-17T12:52:38.340Z,100290.16
2022-08-17T12:55:21.661Z,100287.63
2022-08-17T12:57:56.423Z,100294.47
2022-08-17T13:00:27.264Z,100287.94
2022-08-17T13:02:55.016Z,100281.81
2022-08-17T13:05:34.976Z,100280.72
2022-08-17T13:08:03.717Z,100273.88
2022-08-17T13:10:33.620Z,100277.25
2022-08-17T13:13:16.463Z,100278.25
2022-08-17T13:15:52.776Z,100275.00
2022-08-17T13:18:37.452Z,100266.53
2022-08-17T13:21:04.330Z,100269.81
2022-08-17T13:23:31.058Z,100268.25
2022-08-17T13:26:05.171Z,100270.00
2022-08-17T13:28:36.021Z,100265.47
2022-08-17T13:31:27.798Z,100271.38
2022-08-17T13:34:17.479Z,100263.47
2022-08-17T13:36:46.868Z,100262.06
2022-08-17T13:39:21.776Z,100259.97
2022-08-17T13:41:50.261Z,100264.09
2022-08-17T13:44:36.245Z,100257.13
2022-08-17T13:47:05.397Z,100254.50
2022-08-17T13:49:46.504Z,100251.34
2022-08-17T13:52:44.543Z,100256.50
2022-08-17T13:55:23.400Z,100250.75
2022-08-17T13:58:04.205Z,100242.84
2022-08-17T14:00:35.794Z,100246.16
2022-08-17T14:03:04.440Z,100245.97
2022-08-17T14:05:31.738Z,100241.97
2022-08-17T14:08:02.695Z,100244.88
2022-08-17T14:10:33.220Z,100231.03
2022-08-17T14:12:59.887Z,100238.88
2022-08-17T14:15:54.633Z,100227.47
2022-08-17T14:18:12.857Z,100233.03
2022-08-17T14:20:39.544Z,100233.56
2022-08-17T14:23:05.920Z,100236.59
2022-08-17T14:25:32.305Z,100240.16
2022-08-17T14:27:59.026Z,100237.03
2022-08-17T14:30:29.752Z,100243.72
2022-08-17T14:32:57.799Z,100240.16
2022-08-17T14:35:24.856Z,100235.47
2022-08-17T14:37:51.975Z,100236.75
2022-08-17T14:40:20.621Z,100245.38
2022-08-17T14:42:50.203Z,100237.16
2022-08-17T14:45:31.494Z,100241.94
2022-08-17T14:48:00.403Z,100242.09
2022-08-17T14:50:26.881Z,100243.69
2022-08-17T14:52:53.305Z,100242.28
2022-08-17T14:55:22.512Z,100235.19
2022-08-17T14:57:48.902Z,100249.78
2022-08-17T15:00:16.093Z,100273.63
2022-08-17T15:02:56.863Z,100298.44
2022-08-17T15:05:25.741Z,100297.28
2022-08-17T15:07:52.860Z,100281.78
2022-08-17T15:10:20.056Z,100279.78
2022-08-17T15:12:46.370Z,100296.38
2022-08-17T15:15:15.677Z,100303.44
2022-08-17T15:17:44.485Z,100300.44
2022-08-17T15:20:24.743Z,100291.47
2022-08-17T15:22:51.393Z,100298.44
2022-08-17T15:25:18.593Z,100303.78
2022-08-17T15:27:45.078Z,100286.13
2022-08-17T15:30:12.084Z,100283.28
2022-08-17T15:32:40.218Z,100277.63
2022-08-17T15:35:08.838Z,100290.22
2022-08-17T15:37:35.221Z,100283.53
2022-08-17T15:40:01.958Z,100287.50
2022-08-17T15:42:28.469Z,100291.88
2022-08-17T15:44:54.914Z,100286.13
2022-08-17T15:47:22.056Z,100289.28
2022-08-17T15:49:48.601Z,100287.97
2022-08-17T15:52:25.042Z,100283.88
2022-08-17T15:54:57.324Z,100268.69
2022-08-17T15:57:24.633Z,100255.78
2022-08-17T15:59:55.118Z,100252.41
2022-08-17T16:03:45.668Z,100238.75
2022-08-17T16:05:22.163Z,100240.78
2022-08-17T16:07:51.962Z,100235.50
2022-08-17T16:10:19.356Z,100236.03
2022-08-17T16:12:47.982Z,100235.16
2022-08-17T16:15:15.019Z,100234.41
2022-08-17T16:17:41.843Z,100232.94
2022-08-17T16:20:19.593Z,100235.41
2022-08-17T16:22:48.531Z,100248.16
2022-08-17T16:25:18.343Z,100235.56
2022-08-17T16:27:45.832Z,100238.59
2022-08-17T16:30:17.419Z,100236.91
2022-08-17T16:32:45.046Z,100230.72
2022-08-17T16:35:13.752Z,100239.47
2022-08-17T16:37:40.113Z,100245.66
2022-08-17T16:40:08.657Z,100238.28
2022-08-17T16:42:37.516Z,100236.81
2022-08-17T16:45:25.405Z,100246.09
2022-08-17T16:47:54.672Z,100249.34
2022-08-17T16:50:23.749Z,100240.38
2022-08-17T16:52:50.631Z,100232.84
2022-08-17T16:55:19.767Z,100239.63
2022-08-17T16:57:49.955Z,100247.59
2022-08-17T17:00:18.732Z,100245.59
2022-08-17T17:02:47.854Z,100243.47
2022-08-17T17:05:37.573Z,100236.03
2022-08-17T17:08:15.861Z,100237.81
2022-08-17T17:10:46.565Z,100238.84
2022-08-17T17:13:31.705Z,100235.53
2022-08-17T17:16:19.884Z,100233.59
2022-08-17T17:19:07.463Z,100225.34
2022-08-17T17:21:46.811Z,100226.31
2022-08-17T17:24:21.726Z,100230.78
2022-08-17T17:27:07.381Z,100229.34
2022-08-17T17:30:10.468Z,100230.31
2022-08-17T17:32:44.475Z,100236.00
2022-08-17T17:35:17.403Z,100233.59
2022-08-17T17:37:45.319Z,100234.09
2022-08-17T17:40:40.039Z,100226.94
2022-08-17T17:43:34.942Z,100229.56
2022-08-17T17:46:27.637Z,100241.28
2022-08-17T17:48:56.251Z,100241.13
2022-08-17T17:52:03.667Z,100248.19
2022-08-17T17:54:59.292Z,100246.16
2022-08-17T17:57:47.137Z,100255.03
2022-08-17T18:00:38.637Z,100257.50
2022-08-17T18:03:25.389Z,100261.97
2022-08-17T18:06:04.563Z,100269.63
2022-08-17T18:08:46.973Z,100268.56
2022-08-17T18:11:24.957Z,100271.34
2022-08-17T18:14:29.993Z,100280.28
2022-08-17T18:16:59.464Z,100278.47
2022-08-17T18:19:27.912Z,100283.19
2022-08-17T18:22:16.951Z,100278.16
2022-08-17T18:24:47.029Z,100277.78
2022-08-17T18:27:33.450Z,100282.69
2022-08-17T18:30:21.038Z,100274.00
2022-08-17T18:32:47.381Z,100279.56
2022-08-17T18:35:13.680Z,100269.56
2022-08-17T18:37:51.269Z,100263.81
2022-08-17T18:40:17.898Z,100269.06
2022-08-17T18:43:01.227Z,100266.38
2022-08-17T18:45:32.883Z,100264.38
2022-08-17T18:47:59.996Z,100260.28
2022-08-17T18:50:36.019Z,100270.84
2022-08-17T18:53:33.177Z,100275.84
2022-08-17T18:56:17.682Z,100272.34
2022-08-17T18:58:51.960Z,100277.63
2022-08-17T19:01:21.015Z,100277.09
2022-08-17T19:03:49.121Z,100267.88
2022-08-17T19:06:30.984Z,100264.16
2022-08-17T19:08:57.329Z,100268.81
2022-08-17T19:11:28.436Z,100269.59
2022-08-17T19:14:10.273Z,100277.31
2022-08-17T19:16:51.508Z,100267.75
2022-08-17T19:19:36.214Z,100267.34
2022-08-17T19:22:29.282Z,100271.03
2022-08-17T19:25:10.776Z,100263.13
2022-08-17T19:27:49.213Z,100260.97
2022-08-17T19:30:17.345Z,100259.31
2022-08-17T19:32:43.717Z,100266.50
2022-08-17T19:35:17.122Z,100276.53
2022-08-17T19:37:49.872Z,100271.84
2022-08-17T19:40:54.181Z,100283.59
2022-08-17T19:43:41.916Z,100273.97
2022-08-17T19:46:39.180Z,100286.19
2022-08-17T19:49:20.397Z,100280.38
2022-08-17T19:52:18.828Z,100275.47
2022-08-17T19:55:04.480Z,100276.22
2022-08-17T19:57:55.886Z,100278.81
2022-08-17T20:00:22.736Z,100275.59
2022-08-17T20:03:07.829Z,100282.44
2022-08-17T20:06:11.438Z,100290.94
2022-08-17T20:08:40.958Z,100299.84
2022-08-17T20:11:14.918Z,100299.53
2022-08-17T20:13:44.460Z,100304.78
2022-08-17T20:16:11.966Z,100308.88
2022-08-17T20:18:55.266Z,100308.47
2022-08-17T20:21:28.660Z,100308.06
2022-08-17T20:24:37.728Z,100310.50
2022-08-17T20:27:20.106Z,100308.47
2022-08-17T20:30:10.799Z,100313.34
2022-08-17T20:32:52.271Z,100304.81
2022-08-17T20:35:31.725Z,100310.09
2022-08-17T20:38:03.913Z,100312.50
2022-08-17T20:40:32.196Z,100307.66
2022-08-17T20:42:59.701Z,100298.72
2022-08-17T20:45:49.733Z,100295.91
2022-08-17T20:48:36.742Z,100293.03
2022-08-17T20:51:17.382Z,100296.28
2022-08-17T20:53:47.873Z,100299.97
2022-08-17T20:56:42.176Z,100294.69
2022-08-17T20:59:21.157Z,100293.47
2022-08-17T21:02:18.665Z,100293.84
2022-08-17T21:04:59.382Z,100289.81
2022-08-17T21:07:43.166Z,100297.09
2022-08-17T21:10:25.547Z,100296.69
2022-08-17T21:13:10.822Z,100289.31
2022-08-17T21:15:55.143Z,100290.06
2022-08-17T21:18:41.747Z,100292.53
2022-08-17T21:21:28.304Z,100297.09
2022-08-17T21:24:07.280Z,100301.97
2022-08-17T21:27:11.061Z,100297.34
2022-08-17T21:29:53.396Z,100300.59
2022-08-17T21:32:27.714Z,100294.94
2022-08-17T21:35:06.247Z,100305.19
2022-08-17T21:38:01.858Z,100308.28
2022-08-17T21:40:32.460Z,100312.47
2022-08-17T21:43:19.802Z,100319.72
2022-08-17T21:45:55.064Z,100313.66
2022-08-17T21:48:23.744Z,100308.34
2022-08-17T21:51:01.064Z,100314.06
2022-08-17T21:53:51.040Z,100318.81
2022-08-17T21:56:32.729Z,100315.19
2022-08-17T21:59:15.819Z,100316.25
2022-08-17T22:01:43.156Z,100315.06
2022-08-17T22:04:09.648Z,100314.41
2022-08-17T22:06:39.907Z,100311.91
2022-08-17T22:09:09.576Z,100297.41
2022-08-17T22:11:56.060Z,100305.28
2022-08-17T22:14:53.444Z,100305.69
2022-08-17T22:17:37.069Z,100311.75
2022-08-17T22:20:32.729Z,100304.06
2022-08-17T22:22:58.990Z,100310.09
2022-08-17T22:25:27.851Z,100308.53
2022-08-17T22:28:00.174Z,100316.91
2022-08-17T22:30:43.200Z,100312.91
2022-08-17T22:33:35.420Z,100313.38
2022-08-17T22:36:11.397Z,100324.94
2022-08-17T22:38:38.941Z,100328.78
2022-08-17T22:41:46.300Z,100340.28
2022-08-17T22:44:16.799Z,100348.75
2022-08-17T22:46:57.647Z,100354.53
2022-08-17T22:49:26.096Z,100366.03
2022-08-17T22:52:01.273Z,100368.81
2022-08-17T22:54:28.055Z,100377.81
2022-08-17T22:56:59.787Z,100377.28
2022-08-17T22:59:54.586Z,100381.16
2022-08-17T23:02:34.067Z,100381.78
2022-08-17T23:05:09.633Z,100372.28
2022-08-17T23:07:36.690Z,100374.03
2022-08-17T23:10:03.866Z,100383.53
2022-08-17T23:12:31.110Z,100369.59
2022-08-17T23:14:59.854Z,100370.84
2022-08-17T23:17:28.428Z,100377.28
2022-08-17T23:19:54.920Z,100378.16
2022-08-17T23:22:21.423Z,100381.34
2022-08-17T23:24:48.472Z,100382.81
2022-08-17T23:27:14.973Z,100371.59
2022-08-17T23:29:41.383Z,100367.56
2022-08-17T23:32:10.467Z,100369.25
2022-08-17T23:34:37.871Z,100371.63
2022-08-17T23:37:04.634Z,100362.34
2022-08-17T23:39:31.201Z,100360.38
2022-08-17T23:41:58.881Z,100361.22
2022-08-17T23:44:26.245Z,100366.63
2022-08-17T23:46:53.608Z,100373.84
2022-08-17T23:49:20.300Z,100366.41
2022-08-17T23:51:47.846Z,100370.16
2022-08-17T23:54:22.293Z,100371.31
2022-08-17T23:56:48.662Z,100360.31
2022-08-17T23:59:17.718Z,100364.19
